createdAt,value
2022-08-26T00:02:02.677Z,12.73
2022-08-26T00:07:06.933Z,19.87
2022-08-26T00:12:12.690Z,13.30
2022-08-26T00:17:18.838Z,18.10
2022-08-26T00:22:23.503Z,17.43
2022-08-26T00:27:28.214Z,14.40
2022-08-26T00:32:33.461Z,14.20
2022-08-26T00:37:38.286Z,16.73
2022-08-26T00:42:46.076Z,11.33
2022-08-26T00:47:55.510Z,20.37
2022-08-26T00:53:02.862Z,14.33
2022-08-26T00:58:08.199Z,17.20
2022-08-26T01:03:14.313Z,13.43
2022-08-26T01:08:17.888Z,13.07
2022-08-26T01:13:22.316Z,11.33
2022-08-26T01:18:29.241Z,19.00
2022-08-26T01:23:38.510Z,10.70
2022-08-26T01:28:42.652Z,12.90
2022-08-26T01:33:56.624Z,10.77
2022-08-26T01:39:03.200Z,15.80
2022-08-26T01:44:15.878Z,9.87
2022-08-26T01:49:22.102Z,15.47
2022-08-26T01:54:28.227Z,9.90
2022-08-26T01:59:32.242Z,12.80
2022-08-26T02:04:41.162Z,10.13
2022-08-26T02:09:47.891Z,13.53
2022-08-26T02:14:55.819Z,12.33
2022-08-26T02:19:59.863Z,14.87
2022-08-26T02:25:13.009Z,11.50
2022-08-26T02:30:19.707Z,17.50
2022-08-26T02:35:24.506Z,15.90
2022-08-26T02:40:34.787Z,15.67
2022-08-26T02:45:41.361Z,12.93
2022-08-26T02:50:45.280Z,11.87
2022-08-26T02:55:50.535Z,12.03
2022-08-26T03:00:54.245Z,14.87
2022-08-26T03:05:58.581Z,12.93
2022-08-26T03:11:03.730Z,9.60
2022-08-26T03:16:09.572Z,17.43
2022-08-26T03:21:16.211Z,10.33
2022-08-26T03:26:23.965Z,10.90
2022-08-26T03:31:27.836Z,11.87
2022-08-26T03:36:31.611Z,12.50
2022-08-26T03:41:36.822Z,10.20
2022-08-26T03:46:41.822Z,8.10
2022-08-26T03:51:48.127Z,9.70
2022-08-26T03:56:53.107Z,9.97
2022-08-26T04:01:57.093Z,10.50
2022-08-26T04:07:01.170Z,10.57
2022-08-26T04:12:06.783Z,11.30
2022-08-26T04:17:10.606Z,8.47
2022-08-26T04:22:14.782Z,10.93
2022-08-26T04:27:29.061Z,11.30
2022-08-26T04:32:32.626Z,14.07
2022-08-26T04:37:36.229Z,8.97
2022-08-26T04:42:41.360Z,9.80
2022-08-26T04:47:44.821Z,10.53
2022-08-26T04:52:48.431Z,11.83
2022-08-26T04:57:53.409Z,21.67
2022-08-26T05:02:56.992Z,9.30
2022-08-26T05:08:00.469Z,12.20
2022-08-26T05:13:11.108Z,14.50
2022-08-26T05:18:16.622Z,15.30
2022-08-26T05:23:22.571Z,15.80
2022-08-26T05:28:29.146Z,14.50
2022-08-26T05:33:32.621Z,17.47
2022-08-26T05:38:36.377Z,14.83
2022-08-26T05:43:41.275Z,18.20
2022-08-26T05:48:46.869Z,17.33
2022-08-26T05:53:54.758Z,16.90
2022-08-26T05:59:02.728Z,13.87
2022-08-26T06:04:08.355Z,15.63
2022-08-26T06:09:12.565Z,14.63
2022-08-26T06:14:18.027Z,14.70
2022-08-26T06:19:22.612Z,13.10
2022-08-26T06:24:43.924Z,23.83
2022-08-26T06:29:49.151Z,11.93
2022-08-26T06:34:52.632Z,21.67
2022-08-26T06:39:56.483Z,19.90
2022-08-26T06:45:02.780Z,30.80
2022-08-26T06:50:08.044Z,14.67
2022-08-26T06:55:11.589Z,14.80
2022-08-26T07:00:18.450Z,16.80
2022-08-26T07:05:25.697Z,17.93
2022-08-26T07:10:29.330Z,15.60
2022-08-26T07:15:35.968Z,19.73
2022-08-26T07:20:43.003Z,14.70
2022-08-26T07:25:46.718Z,19.07
2022-08-26T07:30:52.270Z,19.37
2022-08-26T07:35:56.823Z,16.20
2022-08-26T07:41:02.278Z,14.07
2022-08-26T07:46:08.376Z,25.50
2022-08-26T07:51:16.648Z,20.77
2022-08-26T07:56:20.541Z,19.60
2022-08-26T08:01:27.353Z,24.50
2022-08-26T08:06:31.735Z,15.10
2022-08-26T08:11:35.566Z,29.53
2022-08-26T08:16:45.818Z,21.67
2022-08-26T08:21:49.998Z,23.47
2022-08-26T08:26:56.137Z,18.50
2022-08-26T08:32:01.157Z,24.47
2022-08-26T08:37:10.113Z,23.70
2022-08-26T08:42:37.874Z,22.93
2022-08-26T08:47:45.883Z,21.03
2022-08-26T08:52:53.463Z,16.90
2022-08-26T08:58:03.920Z,21.97
2022-08-26T09:03:17.744Z,32.93
2022-08-26T09:08:27.529Z,23.50
2022-08-26T09:13:32.167Z,24.77
2022-08-26T09:18:54.405Z,25.07
2022-08-26T09:23:58.983Z,16.00
2022-08-26T09:29:04.849Z,14.73
2022-08-26T09:34:18.090Z,21.73
2022-08-26T09:39:38.103Z,18.90
2022-08-26T09:44:57.093Z,15.47
2022-08-26T09:50:12.410Z,27.33
2022-08-26T09:55:23.721Z,24.03
2022-08-26T10:00:31.596Z,18.90
2022-08-26T10:05:44.566Z,21.43
2022-08-26T10:10:48.895Z,22.17
2022-08-26T10:16:05.595Z,16.90
2022-08-26T10:21:14.960Z,26.90
2022-08-26T10:26:27.834Z,18.57
2022-08-26T10:31:40.299Z,16.03
2022-08-26T10:37:13.561Z,12.13
2022-08-26T10:42:23.138Z,19.97
2022-08-26T10:47:33.812Z,15.03
2022-08-26T10:52:52.462Z,15.60
2022-08-26T10:58:04.987Z,14.10
2022-08-26T11:03:22.062Z,19.37
2022-08-26T11:08:31.262Z,18.00
2022-08-26T11:14:00.212Z,18.47
2022-08-26T11:19:05.569Z,20.80
2022-08-26T11:24:11.029Z,18.53
2022-08-26T11:29:59.263Z,19.93
2022-08-26T11:35:07.957Z,18.63
2022-08-26T11:40:14.919Z,13.83
2022-08-26T11:45:24.240Z,15.50
2022-08-26T11:50:30.154Z,22.10
2022-08-26T11:55:37.266Z,11.93
2022-08-26T12:00:58.005Z,20.93
2022-08-26T12:06:04.042Z,21.50
2022-08-26T12:11:09.970Z,23.73
2022-08-26T12:16:13.544Z,11.50
2022-08-26T12:21:24.326Z,6.23
2022-08-26T12:26:30.604Z,14.97
2022-08-26T12:31:36.942Z,15.00
2022-08-26T12:36:47.195Z,10.80
2022-08-26T12:41:53.706Z,15.23
2022-08-26T12:47:03.506Z,14.07
2022-08-26T12:52:29.981Z,7.03
2022-08-26T12:57:37.006Z,9.87
2022-08-26T13:02:40.928Z,11.77
2022-08-26T13:08:10.621Z,19.90
2022-08-26T13:13:14.498Z,9.20
2022-08-26T13:18:19.146Z,19.67
2022-08-26T13:23:26.279Z,17.33
2022-08-26T13:28:30.879Z,9.23
2022-08-26T13:33:35.035Z,12.90
2022-08-26T13:38:41.193Z,14.93
2022-08-26T13:43:45.225Z,19.10
2022-08-26T13:48:49.229Z,23.77
2022-08-26T13:53:58.966Z,10.90
2022-08-26T13:59:04.362Z,12.50
2022-08-26T14:04:09.250Z,8.60
2022-08-26T14:09:17.754Z,7.03
2022-08-26T14:14:27.611Z,7.27
2022-08-26T14:19:32.794Z,5.73
2022-08-26T14:24:38.450Z,4.50
2022-08-26T14:29:44.082Z,14.33
2022-08-26T14:34:59.469Z,11.57
2022-08-26T14:40:07.025Z,10.33
2022-08-26T14:45:20.896Z,11.13
2022-08-26T14:50:28.090Z,14.77
2022-08-26T14:55:36.882Z,12.30
2022-08-26T15:00:42.725Z,13.50
2022-08-26T15:05:48.452Z,13.23
2022-08-26T15:10:54.506Z,7.60
2022-08-26T15:15:59.005Z,10.60
2022-08-26T15:21:06.334Z,7.47
2022-08-26T15:26:13.621Z,9.10
2022-08-26T15:31:18.719Z,7.70
2022-08-26T15:36:23.164Z,11.47
2022-08-26T15:41:29.618Z,6.03
2022-08-26T15:46:34.904Z,9.07
2022-08-26T15:51:45.653Z,13.27
2022-08-26T15:56:53.260Z,9.73
2022-08-26T16:01:57.235Z,6.50
2022-08-26T16:07:00.880Z,8.20
2022-08-26T16:12:07.032Z,8.43
2022-08-26T16:17:11.075Z,8.60
2022-08-26T16:22:15.338Z,7.47
2022-08-26T16:27:21.213Z,9.60
2022-08-26T16:32:31.084Z,12.40
2022-08-26T16:37:39.408Z,8.00
2022-08-26T16:42:45.486Z,6.60
2022-08-26T16:47:51.966Z,6.63
2022-08-26T16:52:56.362Z,10.67
2022-08-26T16:58:02.336Z,6.60
2022-08-26T17:03:06.203Z,9.47
2022-08-26T17:08:10.208Z,9.70
2022-08-26T17:13:25.965Z,9.93
2022-08-26T17:18:39.666Z,10.20
2022-08-26T17:23:45.063Z,9.93
2022-08-26T17:28:51.404Z,15.53
2022-08-26T17:33:56.863Z,11.17
2022-08-26T17:39:02.081Z,14.20
2022-08-26T17:44:07.917Z,13.93
2022-08-26T17:49:13.016Z,9.90
2022-08-26T17:54:16.996Z,7.53
2022-08-26T17:59:23.464Z,7.30
2022-08-26T18:04:34.080Z,12.37
2022-08-26T18:09:37.833Z,11.20
2022-08-26T18:14:43.066Z,7.77
2022-08-26T18:19:47.068Z,7.97
2022-08-26T18:24:52.766Z,7.67
2022-08-26T18:30:06.643Z,12.57
2022-08-26T18:35:12.178Z,7.47
2022-08-26T18:40:18.133Z,7.00
2022-08-26T18:45:25.391Z,8.10
2022-08-26T18:50:29.417Z,13.40
2022-08-26T18:55:33.272Z,6.70
2022-08-26T19:00:38.434Z,7.50
2022-08-26T19:05:42.304Z,7.60
2022-08-26T19:10:48.983Z,7.93
2022-08-26T19:15:54.594Z,6.67
2022-08-26T19:21:00.424Z,6.00
2022-08-26T19:26:06.514Z,11.13
2022-08-26T19:31:14.070Z,8.57
2022-08-26T19:36:24.708Z,9.60
2022-08-26T19:41:37.045Z,8.33
2022-08-26T19:46:43.619Z,8.30
2022-08-26T19:51:47.258Z,5.47
2022-08-26T19:56:50.810Z,7.50
2022-08-26T20:02:01.244Z,9.27
2022-08-26T20:07:06.551Z,9.57
2022-08-26T20:12:10.635Z,6.70
2022-08-26T20:17:17.207Z,8.00
2022-08-26T20:22:21.642Z,10.63
2022-08-26T20:27:35.555Z,8.10
2022-08-26T20:32:44.898Z,14.10
2022-08-26T20:37:48.864Z,10.73
2022-08-26T20:42:52.637Z,9.60
2022-08-26T20:47:58.001Z,14.50
2022-08-26T20:53:01.590Z,8.97
2022-08-26T20:58:07.899Z,7.70
2022-08-26T21:03:12.915Z,6.73
2022-08-26T21:08:16.807Z,7.03
2022-08-26T21:13:21.897Z,7.70
2022-08-26T21:18:26.999Z,7.93
2022-08-26T21:23:30.522Z,9.40
2022-08-26T21:28:38.253Z,8.93
2022-08-26T21:33:43.569Z,7.10
2022-08-26T21:38:47.837Z,10.67
2022-08-26T21:43:53.724Z,14.60
2022-08-26T21:49:01.114Z,7.17
2022-08-26T21:54:10.739Z,12.97
2022-08-26T21:59:16.986Z,11.67
2022-08-26T22:04:22.426Z,11.03
2022-08-26T22:09:28.915Z,7.80
2022-08-26T22:14:32.666Z,8.67
2022-08-26T22:19:45.756Z,9.77
2022-08-26T22:24:49.808Z,8.37
2022-08-26T22:29:53.571Z,12.43
2022-08-26T22:34:58.580Z,8.10
2022-08-26T22:40:02.252Z,16.70
2022-08-26T22:45:07.292Z,11.67
2022-08-26T22:50:12.494Z,8.87
2022-08-26T22:55:16.362Z,9.03
2022-08-26T23:00:20.413Z,17.10
2022-08-26T23:05:37.326Z,10.33
2022-08-26T23:10:42.218Z,8.40
2022-08-26T23:15:46.735Z,15.20
2022-08-26T23:20:52.222Z,15.00
2022-08-26T23:25:55.971Z,10.40
2022-08-26T23:31:00.256Z,11.93
2022-08-26T23:36:09.325Z,13.67
2022-08-26T23:41:13.494Z,9.50
2022-08-26T23:46:21.170Z,12.93
2022-08-26T23:51:43.600Z,9.10
2022-08-26T23:56:50.375Z,9.50
